sensor_id;sensor_type;location;lat;lon;timestamp;pressure;altitude;pressure_sealevel;temperature;humidity
35023;BME280;21214;44.912;8.204;2023-08-12T00:00:57;100219.09;;;24.68;100.00
35023;BME280;21214;44.912;8.204;2023-08-12T00:03:22;100205.59;;;24.68;100.00
35023;BME280;21214;44.912;8.204;2023-08-12T00:05:47;100208.09;;;24.70;100.00
35023;BME280;21214;44.912;8.204;2023-08-12T00:08:13;100213.91;;;24.73;100.00
35023;BME280;21214;44.912;8.204;2023-08-12T00:10:38;100211.78;;;24.75;100.00
35023;BME280;21214;44.912;8.204;2023-08-12T00:13:03;100220.72;;;24.76;100.00
35023;BME280;21214;44.912;8.204;2023-08-12T00:15:29;100215.97;;;24.71;100.00
35023;BME280;21214;44.912;8.204;2023-08-12T00:17:54;100217.88;;;24.64;100.00
35023;BME280;21214;44.912;8.204;2023-08-12T00:20:19;100208.13;;;24.63;100.00
35023;BME280;21214;44.912;8.204;2023-08-12T00:22:45;100209.41;;;24.61;100.00
35023;BME280;21214;44.912;8.204;2023-08-12T00:25:10;100213.53;;;24.63;100.00
35023;BME280;21214;44.912;8.204;2023-08-12T00:27:36;100220.00;;;24.62;100.00
35023;BME280;21214;44.912;8.204;2023-08-12T00:30:02;100215.72;;;24.48;100.00
35023;BME280;21214;44.912;8.204;2023-08-12T00:32:28;100214.75;;;24.36;100.00
35023;BME280;21214;44.912;8.204;2023-08-12T00:34:53;100223.34;;;24.13;100.00
35023;BME280;21214;44.912;8.204;2023-08-12T00:37:18;100214.50;;;23.93;100.00
35023;BME280;21214;44.912;8.204;2023-08-12T00:39:44;100215.59;;;23.85;100.00
35023;BME280;21214;44.912;8.204;2023-08-12T00:42:09;100223.69;;;23.85;100.00
35023;BME280;21214;44.912;8.204;2023-08-12T00:44:35;100223.88;;;23.90;100.00
35023;BME280;21214;44.912;8.204;2023-08-12T00:47:00;100220.13;;;23.91;100.00
35023;BME280;21214;44.912;8.204;2023-08-12T00:49:26;100211.91;;;23.73;100.00
35023;BME280;21214;44.912;8.204;2023-08-12T00:51:52;100216.84;;;23.76;100.00
35023;BME280;21214;44.912;8.204;2023-08-12T00:54:17;100216.03;;;23.76;100.00
35023;BME280;21214;44.912;8.204;2023-08-12T00:56:44;100211.06;;;23.79;100.00
35023;BME280;21214;44.912;8.204;2023-08-12T00:59:10;100206.25;;;23.81;100.00
35023;BME280;21214;44.912;8.204;2023-08-12T01:01:36;100211.47;;;23.70;100.00
35023;BME280;21214;44.912;8.204;2023-08-12T01:04:03;100209.38;;;23.78;100.00
35023;BME280;21214;44.912;8.204;2023-08-12T01:06:29;100210.22;;;23.79;100.00
35023;BME280;21214;44.912;8.204;2023-08-12T01:08:54;100207.91;;;23.82;100.00
35023;BME280;21214;44.912;8.204;2023-08-12T01:13:58;100208.09;;;23.87;100.00
35023;BME280;21214;44.912;8.204;2023-08-12T01:16:26;100214.13;;;23.89;100.00
35023;BME280;21214;44.912;8.204;2023-08-12T01:18:54;100208.09;;;23.87;100.00
35023;BME280;21214;44.912;8.204;2023-08-12T01:21:21;100201.06;;;23.86;100.00
35023;BME280;21214;44.912;8.204;2023-08-12T01:23:46;100210.38;;;23.90;100.00
35023;BME280;21214;44.912;8.204;2023-08-12T01:26:12;100210.38;;;23.90;100.00
35023;BME280;21214;44.912;8.204;2023-08-12T01:28:37;100205.41;;;23.87;100.00
35023;BME280;21214;44.912;8.204;2023-08-12T01:31:08;100210.19;;;23.85;100.00
35023;BME280;21214;44.912;8.204;2023-08-12T01:33:57;100204.81;;;23.85;100.00
35023;BME280;21214;44.912;8.204;2023-08-12T01:36:23;100211.25;;;23.84;100.00
35023;BME280;21214;44.912;8.204;2023-08-12T01:38:52;100217.88;;;23.75;100.00
35023;BME280;21214;44.912;8.204;2023-08-12T01:41:20;100215.59;;;23.79;100.00
35023;BME280;21214;44.912;8.204;2023-08-12T01:43:48;100211.06;;;23.79;100.00
35023;BME280;21214;44.912;8.204;2023-08-12T01:46:14;100216.03;;;23.76;100.00
35023;BME280;21214;44.912;8.204;2023-08-12T01:48:40;100210.66;;;23.69;100.00
35023;BME280;21214;44.912;8.204;2023-08-12T01:51:05;100203.19;;;23.71;100.00
35023;BME280;21214;44.912;8.204;2023-08-12T01:53:31;100206.50;;;23.73;100.00
35023;BME280;21214;44.912;8.204;2023-08-12T01:55:56;100206.50;;;23.73;100.00
35023;BME280;21214;44.912;8.204;2023-08-12T01:58:21;100195.28;;;23.76;100.00
35023;BME280;21214;44.912;8.204;2023-08-12T02:00:46;100191.94;;;23.81;100.00
35023;BME280;21214;44.912;8.204;2023-08-12T02:03:12;100193.81;;;23.80;100.00
35023;BME280;21214;44.912;8.204;2023-08-12T02:05:37;100190.72;;;23.83;100.00
35023;BME280;21214;44.912;8.204;2023-08-12T02:08:03;100201.66;;;23.88;100.00
35023;BME280;21214;44.912;8.204;2023-08-12T02:10:29;100197.31;;;23.87;100.00
35023;BME280;21214;44.912;8.204;2023-08-12T02:12:54;100201.50;;;23.83;100.00
35023;BME280;21214;44.912;8.204;2023-08-12T02:15:20;100205.69;;;23.73;100.00
35023;BME280;21214;44.912;8.204;2023-08-12T02:17:45;100204.00;;;23.78;100.00
35023;BME280;21214;44.912;8.204;2023-08-12T02:20:10;100200.91;;;23.68;100.00
35023;BME280;21214;44.912;8.204;2023-08-12T02:22:36;100204.03;;;23.65;100.00
35023;BME280;21214;44.912;8.204;2023-08-12T02:25:01;100198.66;;;23.58;100.00
35023;BME280;21214;44.912;8.204;2023-08-12T02:27:26;100207.19;;;23.36;100.00
35023;BME280;21214;44.912;8.204;2023-08-12T02:29:52;100206.56;;;23.34;100.00
35023;BME280;21214;44.912;8.204;2023-08-12T02:32:17;100206.56;;;23.34;100.00
35023;BME280;21214;44.912;8.204;2023-08-12T02:34:42;100209.88;;;23.36;100.00
35023;BME280;21214;44.912;8.204;2023-08-12T02:37:09;100207.81;;;23.38;100.00
35023;BME280;21214;44.912;8.204;2023-08-12T02:39:34;100216.09;;;23.43;100.00
35023;BME280;21214;44.912;8.204;2023-08-12T02:42:00;100206.13;;;23.43;100.00
35023;BME280;21214;44.912;8.204;2023-08-12T02:44:26;100215.06;;;23.44;100.00
35023;BME280;21214;44.912;8.204;2023-08-12T02:46:51;100214.41;;;23.42;100.00
35023;BME280;21214;44.912;8.204;2023-08-12T02:49:17;100211.94;;;23.40;100.00
35023;BME280;21214;44.912;8.204;2023-08-12T02:51:42;100207.38;;;23.41;100.00
35023;BME280;21214;44.912;8.204;2023-08-12T02:54:08;100207.81;;;23.38;100.00
35023;BME280;21214;44.912;8.204;2023-08-12T02:56:33;100214.88;;;23.25;100.00
35023;BME280;21214;44.912;8.204;2023-08-12T02:58:59;100204.50;;;23.16;100.00
35023;BME280;21214;44.912;8.204;2023-08-12T03:01:24;100212.78;;;23.21;100.00
35023;BME280;21214;44.912;8.204;2023-08-12T03:03:50;100208.44;;;23.26;100.00
35023;BME280;21214;44.912;8.204;2023-08-12T03:06:15;100200.38;;;23.26;100.00
35023;BME280;21214;44.912;8.204;2023-08-12T03:08:41;100201.59;;;23.31;100.00
35023;BME280;21214;44.912;8.204;2023-08-12T03:11:07;100197.88;;;23.32;100.00
35023;BME280;21214;44.912;8.204;2023-08-12T03:13:32;100198.28;;;23.28;100.00
35023;BME280;21214;44.912;8.204;2023-08-12T03:15:58;100201.22;;;23.20;100.00
35023;BME280;21214;44.912;8.204;2023-08-12T03:18:24;100206.34;;;23.22;100.00
35023;BME280;21214;44.912;8.204;2023-08-12T03:20:49;100204.50;;;23.22;100.00
35023;BME280;21214;44.912;8.204;2023-08-12T03:23:15;100204.69;;;23.27;100.00
35023;BME280;21214;44.912;8.204;2023-08-12T03:25:42;100202.00;;;23.27;100.00
35023;BME280;21214;44.912;8.204;2023-08-12T03:28:07;100194.97;;;23.26;100.00
35023;BME280;21214;44.912;8.204;2023-08-12T03:30:33;100198.28;;;23.28;100.00
35023;BME280;21214;44.912;8.204;2023-08-12T03:32:58;100200.56;;;23.32;100.00
35023;BME280;21214;44.912;8.204;2023-08-12T03:35:27;100207.19;;;23.36;100.00
35023;BME280;21214;44.912;8.204;2023-08-12T03:37:52;100208.22;;;23.35;100.00
35023;BME280;21214;44.912;8.204;2023-08-12T03:40:19;100209.03;;;23.28;100.00
35023;BME280;21214;44.912;8.204;2023-08-12T03:42:45;100203.06;;;23.26;100.00
35023;BME280;21214;44.912;8.204;2023-08-12T03:45:10;100201.81;;;23.22;100.00
35023;BME280;21214;44.912;8.204;2023-08-12T03:47:36;100199.56;;;23.13;100.00
35023;BME280;21214;44.912;8.204;2023-08-12T03:50:01;100201.59;;;23.04;100.00
35023;BME280;21214;44.912;8.204;2023-08-12T03:52:26;100199.34;;;23.01;100.00
35023;BME280;21214;44.912;8.204;2023-08-12T03:54:52;100197.50;;;22.95;100.00
35023;BME280;21214;44.912;8.204;2023-08-12T03:57:19;100205.38;;;22.97;100.00
35023;BME280;21214;44.912;8.204;2023-08-12T03:59:45;100204.94;;;22.93;100.00
35023;BME280;21214;44.912;8.204;2023-08-12T04:02:10;100207.41;;;22.88;100.00
35023;BME280;21214;44.912;8.204;2023-08-12T04:04:35;100209.47;;;22.86;100.00
35023;BME280;21214;44.912;8.204;2023-08-12T04:07:01;100200.81;;;22.84;100.00
35023;BME280;21214;44.912;8.204;2023-08-12T04:09:26;100203.25;;;22.85;100.00
35023;BME280;21214;44.912;8.204;2023-08-12T04:11:51;100198.72;;;22.86;100.00
35023;BME280;21214;44.912;8.204;2023-08-12T04:14:17;100210.94;;;22.95;100.00
35023;BME280;21214;44.912;8.204;2023-08-12T04:16:42;100209.47;;;22.99;100.00
35023;BME280;21214;44.912;8.204;2023-08-12T04:19:07;100203.28;;;22.99;100.00
35023;BME280;21214;44.912;8.204;2023-08-12T04:21:33;100199.34;;;23.01;100.00
35023;BME280;21214;44.912;8.204;2023-08-12T04:23:59;100194.78;;;23.08;100.00
35023;BME280;21214;44.912;8.204;2023-08-12T04:26:24;100197.50;;;23.08;100.00
35023;BME280;21214;44.912;8.204;2023-08-12T04:28:50;100199.94;;;23.10;100.00
35023;BME280;21214;44.912;8.204;2023-08-12T04:31:16;100207.19;;;23.09;100.00
35023;BME280;21214;44.912;8.204;2023-08-12T04:33:42;100205.75;;;23.07;100.00
35023;BME280;21214;44.912;8.204;2023-08-12T04:36:08;100212.56;;;23.09;100.00
35023;BME280;21214;44.912;8.204;2023-08-12T04:38:33;100219.03;;;23.08;100.00
35023;BME280;21214;44.912;8.204;2023-08-12T04:41:00;100216.09;;;23.03;100.00
35023;BME280;21214;44.912;8.204;2023-08-12T04:43:27;100209.09;;;23.02;100.00
35023;BME280;21214;44.912;8.204;2023-08-12T04:45:52;100209.09;;;23.02;100.00
35023;BME280;21214;44.912;8.204;2023-08-12T04:48:18;100210.13;;;23.01;100.00
35023;BME280;21214;44.912;8.204;2023-08-12T04:50:44;100216.72;;;22.92;100.00
35023;BME280;21214;44.912;8.204;2023-08-12T04:53:09;100213.44;;;22.90;100.00
35023;BME280;21214;44.912;8.204;2023-08-12T04:55:34;100220.03;;;22.81;100.00
35023;BME280;21214;44.912;8.204;2023-08-12T04:58:01;100218.06;;;22.35;100.00
35023;BME280;21214;44.912;8.204;2023-08-12T05:00:27;100218.03;;;22.29;100.00
35023;BME280;21214;44.912;8.204;2023-08-12T05:02:53;100220.72;;;22.22;100.00
35023;BME280;21214;44.912;8.204;2023-08-12T05:05:18;100209.56;;;22.25;100.00
35023;BME280;21214;44.912;8.204;2023-08-12T05:07:44;100221.78;;;22.34;100.00
35023;BME280;21214;44.912;8.204;2023-08-12T05:10:17;100227.59;;;22.44;100.00
35023;BME280;21214;44.912;8.204;2023-08-12T05:12:42;100221.00;;;22.54;100.00
35023;BME280;21214;44.912;8.204;2023-08-12T05:15:08;100217.31;;;22.61;100.00
35023;BME280;21214;44.912;8.204;2023-08-12T05:17:34;100216.06;;;22.64;100.00
35023;BME280;21214;44.912;8.204;2023-08-12T05:19:59;100215.66;;;22.67;100.00
35023;BME280;21214;44.912;8.204;2023-08-12T05:22:25;100218.13;;;22.68;100.00
35023;BME280;21214;44.912;8.204;2023-08-12T05:24:50;100225.63;;;22.73;100.00
35023;BME280;21214;44.912;8.204;2023-08-12T05:27:15;100225.63;;;22.73;100.00
35023;BME280;21214;44.912;8.204;2023-08-12T05:29:41;100219.00;;;22.75;100.00
35023;BME280;21214;44.912;8.204;2023-08-12T05:32:06;100219.44;;;22.79;100.00
35023;BME280;21214;44.912;8.204;2023-08-12T05:34:31;100216.53;;;22.87;100.00
35023;BME280;21214;44.912;8.204;2023-08-12T05:36:57;100227.91;;;22.89;100.00
35023;BME280;21214;44.912;8.204;2023-08-12T05:39:22;100226.06;;;22.96;100.00
35023;BME280;21214;44.912;8.204;2023-08-12T05:41:47;100229.34;;;22.98;100.00
35023;BME280;21214;44.912;8.204;2023-08-12T05:44:13;100228.31;;;22.99;100.00
35023;BME280;21214;44.912;8.204;2023-08-12T05:46:38;100224.59;;;23.07;100.00
35023;BME280;21214;44.912;8.204;2023-08-12T05:49:03;100230.59;;;23.15;100.00
35023;BME280;21214;44.912;8.204;2023-08-12T05:51:29;100224.38;;;23.21;100.00
35023;BME280;21214;44.912;8.204;2023-08-12T05:53:54;100230.00;;;23.26;100.00
35023;BME280;21214;44.912;8.204;2023-08-12T05:56:19;100229.34;;;23.31;100.00
35023;BME280;21214;44.912;8.204;2023-08-12T05:58:45;100226.66;;;23.38;100.00
35023;BME280;21214;44.912;8.204;2023-08-12T06:01:10;100230.56;;;23.42;100.00
35023;BME280;21214;44.912;8.204;2023-08-12T06:03:35;100227.09;;;23.48;100.00
35023;BME280;21214;44.912;8.204;2023-08-12T06:06:00;100232.03;;;23.51;100.00
35023;BME280;21214;44.912;8.204;2023-08-12T06:08:26;100232.03;;;23.51;100.00
35023;BME280;21214;44.912;8.204;2023-08-12T06:10:51;100235.78;;;23.50;100.00
35023;BME280;21214;44.912;8.204;2023-08-12T06:13:16;100239.28;;;23.57;100.00
35023;BME280;21214;44.912;8.204;2023-08-12T06:15:42;100232.22;;;23.62;100.00
35023;BME280;21214;44.912;8.204;2023-08-12T06:18:07;100233.25;;;23.68;100.00
35023;BME280;21214;44.912;8.204;2023-08-12T06:20:32;100228.47;;;23.70;100.00
35023;BME280;21214;44.912;8.204;2023-08-12T06:22:58;100231.97;;;23.77;100.00
35023;BME280;21214;44.912;8.204;2023-08-12T06:25:23;100235.91;;;23.81;100.00
35023;BME280;21214;44.912;8.204;2023-08-12T06:27:48;100231.31;;;23.88;100.00
35023;BME280;21214;44.912;8.204;2023-08-12T06:30:14;100228.81;;;23.93;100.00
35023;BME280;21214;44.912;8.204;2023-08-12T06:32:39;100226.28;;;23.98;100.00
35023;BME280;21214;44.912;8.204;2023-08-12T06:35:05;100220.06;;;24.04;100.00
35023;BME280;21214;44.912;8.204;2023-08-12T06:37:30;100235.38;;;24.11;100.00
35023;BME280;21214;44.912;8.204;2023-08-12T06:39:55;100228.25;;;23.78;100.00
35023;BME280;21214;44.912;8.204;2023-08-12T06:42:21;100228.41;;;23.96;100.00
35023;BME280;21214;44.912;8.204;2023-08-12T06:44:55;100226.28;;;24.05;100.00
35023;BME280;21214;44.912;8.204;2023-08-12T06:47:20;100228.31;;;24.09;100.00
35023;BME280;21214;44.912;8.204;2023-08-12T06:49:46;100223.34;;;24.20;100.00
35023;BME280;21214;44.912;8.204;2023-08-12T06:52:11;100230.41;;;24.21;100.00
35023;BME280;21214;44.912;8.204;2023-08-12T06:54:37;100233.66;;;24.29;100.00
35023;BME280;21214;44.912;8.204;2023-08-12T06:57:02;100231.97;;;24.35;100.00
35023;BME280;21214;44.912;8.204;2023-08-12T06:59:27;100224.69;;;24.42;100.00
35023;BME280;21214;44.912;8.204;2023-08-12T07:01:52;100223.81;;;24.48;100.00
35023;BME280;21214;44.912;8.204;2023-08-12T07:04:18;100235.97;;;24.57;100.00
35023;BME280;21214;44.912;8.204;2023-08-12T07:06:43;100222.69;;;24.62;100.00
35023;BME280;21214;44.912;8.204;2023-08-12T07:09:08;100225.59;;;24.61;100.00
35023;BME280;21214;44.912;8.204;2023-08-12T07:11:34;100225.56;;;24.67;100.00
35023;BME280;21214;44.912;8.204;2023-08-12T07:13:59;100226.31;;;24.74;100.00
35023;BME280;21214;44.912;8.204;2023-08-12T07:16:24;100227.56;;;24.78;100.00
35023;BME280;21214;44.912;8.204;2023-08-12T07:18:49;100227.09;;;24.81;100.00
35023;BME280;21214;44.912;8.204;2023-08-12T07:21:15;100228.94;;;24.87;100.00
35023;BME280;21214;44.912;8.204;2023-08-12T07:23:40;100223.72;;;24.93;100.00
35023;BME280;21214;44.912;8.204;2023-08-12T07:26:06;100232.91;;;24.92;100.00
35023;BME280;21214;44.912;8.204;2023-08-12T07:28:31;100223.97;;;24.91;100.00
35023;BME280;21214;44.912;8.204;2023-08-12T07:30:57;100229.53;;;24.96;100.00
35023;BME280;21214;44.912;8.204;2023-08-12T07:33:22;100218.69;;;25.03;100.00
35023;BME280;21214;44.912;8.204;2023-08-12T07:35:47;100218.22;;;25.06;100.00
35023;BME280;21214;44.912;8.204;2023-08-12T07:38:13;100221.53;;;25.08;100.00
35023;BME280;21214;44.912;8.204;2023-08-12T07:40:38;100216.31;;;25.13;100.00
35023;BME280;21214;44.912;8.204;2023-08-12T07:43:03;100221.44;;;25.21;100.00
35023;BME280;21214;44.912;8.204;2023-08-12T07:45:29;100215.94;;;25.27;100.00
35023;BME280;21214;44.912;8.204;2023-08-12T07:47:54;100210.47;;;25.34;100.00
35023;BME280;21214;44.912;8.204;2023-08-12T07:50:19;100209.59;;;25.40;100.00
35023;BME280;21214;44.912;8.204;2023-08-12T07:52:45;100212.00;;;25.48;100.00
35023;BME280;21214;44.912;8.204;2023-08-12T07:55:10;100206.75;;;25.53;100.00
35023;BME280;21214;44.912;8.204;2023-08-12T07:57:35;100205.28;;;25.57;100.00
35023;BME280;21214;44.912;8.204;2023-08-12T08:00:00;100208.13;;;25.62;100.00
35023;BME280;21214;44.912;8.204;2023-08-12T08:02:26;100211.59;;;25.69;100.00
35023;BME280;21214;44.912;8.204;2023-08-12T08:04:51;100204.72;;;25.74;100.00
35023;BME280;21214;44.912;8.204;2023-08-12T08:07:16;100208.81;;;25.76;100.00
35023;BME280;21214;44.912;8.204;2023-08-12T08:09:42;100203.19;;;25.78;100.00
35023;BME280;21214;44.912;8.204;2023-08-12T08:12:08;100200.50;;;25.78;100.00
35023;BME280;21214;44.912;8.204;2023-08-12T08:14:34;100195.84;;;25.85;100.00
35023;BME280;21214;44.912;8.204;2023-08-12T08:16:59;100202.44;;;25.89;100.00
35023;BME280;21214;44.912;8.204;2023-08-12T08:19:24;100203.19;;;25.96;100.00
35023;BME280;21214;44.912;8.204;2023-08-12T08:21:50;100196.88;;;26.02;100.00
35023;BME280;21214;44.912;8.204;2023-08-12T08:24:15;100191.38;;;26.08;100.00
35023;BME280;21214;44.912;8.204;2023-08-12T08:26:40;100192.34;;;26.14;100.00
35023;BME280;21214;44.912;8.204;2023-08-12T08:29:06;100195.47;;;26.11;100.00
35023;BME280;21214;44.912;8.204;2023-08-12T08:31:31;100190.22;;;26.16;100.00
35023;BME280;21214;44.912;8.204;2023-08-12T08:33:57;100180.00;;;26.18;100.00
35023;BME280;21214;44.912;8.204;2023-08-12T08:36:22;100189.28;;;26.22;100.00
35023;BME280;21214;44.912;8.204;2023-08-12T08:38:48;100190.75;;;26.25;100.00
35023;BME280;21214;44.912;8.204;2023-08-12T08:41:13;100188.66;;;26.27;100.00
35023;BME280;21214;44.912;8.204;2023-08-12T08:43:41;100185.84;;;26.33;100.00
35023;BME280;21214;44.912;8.204;2023-08-12T08:46:08;100183.28;;;26.38;100.00
35023;BME280;21214;44.912;8.204;2023-08-12T08:48:34;100188.00;;;26.43;100.00
35023;BME280;21214;44.912;8.204;2023-08-12T08:51:00;100180.00;;;26.48;100.00
35023;BME280;21214;44.912;8.204;2023-08-12T08:53:26;100180.38;;;26.52;100.00
35023;BME280;21214;44.912;8.204;2023-08-12T08:55:51;100177.81;;;26.57;100.00
35023;BME280;21214;44.912;8.204;2023-08-12T08:58:17;100177.69;;;26.63;100.00
35023;BME280;21214;44.912;8.204;2023-08-12T09:00:43;100175.13;;;26.68;100.00
35023;BME280;21214;44.912;8.204;2023-08-12T09:03:08;100179.59;;;26.74;100.00
35023;BME280;21214;44.912;8.204;2023-08-12T09:05:34;100179.47;;;26.81;100.00
35023;BME280;21214;44.912;8.204;2023-08-12T09:08:00;100176.94;;;26.86;100.00
35023;BME280;21214;44.912;8.204;2023-08-12T09:10:26;100180.13;;;26.95;100.00
35023;BME280;21214;44.912;8.204;2023-08-12T09:12:52;100176.13;;;26.97;100.00
35023;BME280;21214;44.912;8.204;2023-08-12T09:15:17;100170.22;;;27.00;100.00
35023;BME280;21214;44.912;8.204;2023-08-12T09:17:44;100171.41;;;27.04;100.00
35023;BME280;21214;44.912;8.204;2023-08-12T09:20:09;100169.91;;;27.08;100.00
35023;BME280;21214;44.912;8.204;2023-08-12T09:22:37;100174.38;;;27.14;100.00
35023;BME280;21214;44.912;8.204;2023-08-12T09:25:02;100174.72;;;27.18;100.00
35023;BME280;21214;44.912;8.204;2023-08-12T09:27:32;100169.19;;;27.24;100.00
35023;BME280;21214;44.912;8.204;2023-08-12T09:29:58;100168.69;;;27.27;100.00
35023;BME280;21214;44.912;8.204;2023-08-12T09:32:24;100162.81;;;27.30;100.00
35023;BME280;21214;44.912;8.204;2023-08-12T09:34:50;100170.44;;;27.34;100.00
35023;BME280;21214;44.912;8.204;2023-08-12T09:37:16;100162.91;;;27.36;100.00
35023;BME280;21214;44.912;8.204;2023-08-12T09:39:42;100163.84;;;27.41;100.00
35023;BME280;21214;44.912;8.204;2023-08-12T09:42:07;100161.38;;;27.40;100.00
35023;BME280;21214;44.912;8.204;2023-08-12T09:44:37;100152.19;;;27.41;100.00
35023;BME280;21214;44.912;8.204;2023-08-12T09:47:02;100150.41;;;27.46;100.00
35023;BME280;21214;44.912;8.204;2023-08-12T09:49:28;100150.78;;;27.50;100.00
35023;BME280;21214;44.912;8.204;2023-08-12T09:51:55;100143.25;;;27.52;100.00
35023;BME280;21214;44.912;8.204;2023-08-12T09:54:21;100139.47;;;27.53;100.00
35023;BME280;21214;44.912;8.204;2023-08-12T09:56:47;100141.47;;;27.57;100.00
35023;BME280;21214;44.912;8.204;2023-08-12T09:59:12;100148.41;;;27.65;100.00
35023;BME280;21214;44.912;8.204;2023-08-12T10:01:39;100141.56;;;27.74;100.00
35023;BME280;21214;44.912;8.204;2023-08-12T10:04:07;100137.28;;;27.78;100.00
35023;BME280;21214;44.912;8.204;2023-08-12T10:06:37;100140.59;;;27.80;100.00
35023;BME280;21214;44.912;8.204;2023-08-12T10:09:03;100136.31;;;27.84;100.00
35023;BME280;21214;44.912;8.204;2023-08-12T10:11:30;100136.91;;;27.86;100.00
35023;BME280;21214;44.912;8.204;2023-08-12T10:13:55;100136.41;;;27.89;100.00
35023;BME280;21214;44.912;8.204;2023-08-12T10:16:21;100131.31;;;27.93;100.00
35023;BME280;21214;44.912;8.204;2023-08-12T10:18:47;100130.63;;;27.97;100.00
35023;BME280;21214;44.912;8.204;2023-08-12T10:21:12;100131.28;;;28.04;100.00
35023;BME280;21214;44.912;8.204;2023-08-12T10:23:39;100132.78;;;28.12;100.00
35023;BME280;21214;44.912;8.204;2023-08-12T10:26:06;100122.31;;;28.16;100.00
35023;BME280;21214;44.912;8.204;2023-08-12T10:28:32;100124.28;;;28.20;100.00
35023;BME280;21214;44.912;8.204;2023-08-12T10:31:02;100113.13;;;28.33;99.55
35023;BME280;21214;44.912;8.204;2023-08-12T10:33:27;100111.31;;;28.39;99.08
35023;BME280;21214;44.912;8.204;2023-08-12T10:35:53;100113.53;;;28.42;99.23
35023;BME280;21214;44.912;8.204;2023-08-12T10:38:20;100117.41;;;28.46;98.53
35023;BME280;21214;44.912;8.204;2023-08-12T10:40:49;100115.25;;;28.48;97.18
35023;BME280;21214;44.912;8.204;2023-08-12T10:43:15;100110.97;;;28.52;96.45
35023;BME280;21214;44.912;8.204;2023-08-12T10:45:46;100115.09;;;28.55;95.94
35023;BME280;21214;44.912;8.204;2023-08-12T10:48:22;100110.00;;;28.58;96.48
35023;BME280;21214;44.912;8.204;2023-08-12T10:50:49;100107.34;;;28.63;95.93
35023;BME280;21214;44.912;8.204;2023-08-12T10:53:20;100106.38;;;28.69;95.66
35023;BME280;21214;44.912;8.204;2023-08-12T10:55:48;100107.56;;;28.73;94.48
35023;BME280;21214;44.912;8.204;2023-08-12T10:58:13;100102.13;;;28.73;94.91
35023;BME280;21214;44.912;8.204;2023-08-12T11:00:51;100103.09;;;28.67;92.88
35023;BME280;21214;44.912;8.204;2023-08-12T11:03:18;100091.28;;;28.73;92.90
35023;BME280;21214;44.912;8.204;2023-08-12T11:05:43;100085.34;;;28.76;93.47
35023;BME280;21214;44.912;8.204;2023-08-12T11:08:11;100086.50;;;28.80;92.98
35023;BME280;21214;44.912;8.204;2023-08-12T11:10:38;100076.78;;;28.84;93.08
35023;BME280;21214;44.912;8.204;2023-08-12T11:13:03;100076.84;;;28.89;92.50
35023;BME280;21214;44.912;8.204;2023-08-12T11:15:33;100066.03;;;28.95;92.96
35023;BME280;21214;44.912;8.204;2023-08-12T11:17:59;100066.69;;;29.02;92.87
35023;BME280;21214;44.912;8.204;2023-08-12T11:20:25;100065.16;;;29.11;92.90
35023;BME280;21214;44.912;8.204;2023-08-12T11:22:52;100060.91;;;29.15;93.03
35023;BME280;21214;44.912;8.204;2023-08-12T11:25:18;100058.53;;;29.23;92.38
35023;BME280;21214;44.912;8.204;2023-08-12T11:27:44;100053.44;;;29.27;92.38
35023;BME280;21214;44.912;8.204;2023-08-12T11:30:10;100057.28;;;29.31;91.86
35023;BME280;21214;44.912;8.204;2023-08-12T11:32:37;100041.66;;;29.38;91.56
35023;BME280;21214;44.912;8.204;2023-08-12T11:35:03;100044.47;;;29.48;89.33
35023;BME280;21214;44.912;8.204;2023-08-12T11:37:29;100039.34;;;29.52;90.03
35023;BME280;21214;44.912;8.204;2023-08-12T11:39:54;100033.06;;;29.51;90.12
35023;BME280;21214;44.912;8.204;2023-08-12T11:42:19;100035.31;;;29.54;89.89
35023;BME280;21214;44.912;8.204;2023-08-12T11:44:45;100025.28;;;29.60;89.28
35023;BME280;21214;44.912;8.204;2023-08-12T11:47:10;100030.53;;;29.66;89.19
35023;BME280;21214;44.912;8.204;2023-08-12T11:49:35;100028.91;;;29.65;88.24
35023;BME280;21214;44.912;8.204;2023-08-12T11:52:01;100026.75;;;29.67;87.99
35023;BME280;21214;44.912;8.204;2023-08-12T11:54:26;100018.09;;;29.76;86.30
35023;BME280;21214;44.912;8.204;2023-08-12T11:56:52;100021.69;;;29.81;85.07
35023;BME280;21214;44.912;8.204;2023-08-12T11:59:18;100022.56;;;29.87;84.87
35023;BME280;21214;44.912;8.204;2023-08-12T12:01:46;100017.69;;;29.89;84.86
35023;BME280;21214;44.912;8.204;2023-08-12T12:04:14;100009.72;;;30.04;84.94
35023;BME280;21214;44.912;8.204;2023-08-12T12:06:39;100011.09;;;30.06;83.01
35023;BME280;21214;44.912;8.204;2023-08-12T12:09:05;100009.25;;;30.17;83.00
35023;BME280;21214;44.912;8.204;2023-08-12T12:11:34;99989.81;;;30.35;83.28
35023;BME280;21214;44.912;8.204;2023-08-12T12:14:01;99995.72;;;30.59;81.17
35023;BME280;21214;44.912;8.204;2023-08-12T12:16:35;99992.81;;;30.76;79.73
35023;BME280;21214;44.912;8.204;2023-08-12T12:19:01;99984.19;;;30.99;80.10
35023;BME280;21214;44.912;8.204;2023-08-12T12:21:27;99982.09;;;31.11;78.62
35023;BME280;21214;44.912;8.204;2023-08-12T12:23:53;99987.63;;;31.26;77.70
35023;BME280;21214;44.912;8.204;2023-08-12T12:26:18;99988.16;;;31.28;76.66
35023;BME280;21214;44.912;8.204;2023-08-12T12:28:44;99986.53;;;31.27;76.45
35023;BME280;21214;44.912;8.204;2023-08-12T12:31:10;99984.09;;;31.46;75.80
35023;BME280;21214;44.912;8.204;2023-08-12T12:33:35;99977.91;;;31.66;75.44
35023;BME280;21214;44.912;8.204;2023-08-12T12:36:00;99977.94;;;31.86;74.21
35023;BME280;21214;44.912;8.204;2023-08-12T12:38:26;99976.88;;;31.92;73.20